createdAt,value
2018-02-08T00:00:08.524Z,93.84
2018-02-08T00:01:08.521Z,93.94
2018-02-08T00:03:01.478Z,93.66
2018-02-08T00:04:01.489Z,94.22
2018-02-08T00:05:54.360Z,92.90
2018-02-08T00:06:54.366Z,93.18
2018-02-08T00:08:47.813Z,93.18
2018-02-08T00:09:47.804Z,92.90
2018-02-08T00:11:40.708Z,93.47
2018-02-08T00:12:40.712Z,94.13
2018-02-08T00:14:33.663Z,94.79
2018-02-08T00:15:33.644Z,94.98
2018-02-08T00:17:27.082Z,95.54
2018-02-08T00:18:27.080Z,95.45
2018-02-08T00:20:19.981Z,94.70
2018-02-08T00:21:19.990Z,94.60
2018-02-08T00:23:12.974Z,94.70
2018-02-08T00:24:12.953Z,94.98
2018-02-08T00:26:05.870Z,96.49
2018-02-08T00:27:05.875Z,96.77
2018-02-08T00:28:58.808Z,95.92
2018-02-08T00:29:58.799Z,95.64
2018-02-08T00:31:51.707Z,95.64
2018-02-08T00:32:51.712Z,95.17
2018-02-08T00:34:44.650Z,94.89
2018-02-08T00:35:44.636Z,94.70
2018-02-08T00:37:37.566Z,95.03
2018-02-08T00:38:37.553Z,95.21
2018-02-08T00:40:30.967Z,95.50
2018-02-08T00:41:30.969Z,95.68
2018-02-08T00:43:23.912Z,95.87
2018-02-08T00:44:23.897Z,95.78
2018-02-08T00:46:16.805Z,96.25
2018-02-08T00:47:16.812Z,96.53
2018-02-08T00:49:09.750Z,96.72
2018-02-08T00:50:09.738Z,97.10
2018-02-08T00:52:02.655Z,97.76
2018-02-08T00:53:02.657Z,97.19
2018-02-08T00:54:55.604Z,97.19
2018-02-08T00:55:55.587Z,98.04
2018-02-08T00:57:48.537Z,97.48
2018-02-08T00:58:48.512Z,97.76
2018-02-08T01:00:41.498Z,98.04
2018-02-08T01:01:41.500Z,97.95
2018-02-08T01:03:34.937Z,97.85
2018-02-08T01:04:34.919Z,97.95
2018-02-08T01:06:27.834Z,96.77
2018-02-08T01:07:27.838Z,96.01
2018-02-08T01:09:20.772Z,94.98
2018-02-08T01:10:20.756Z,94.51
2018-02-08T01:12:13.669Z,94.70
2018-02-08T01:13:13.675Z,94.98
2018-02-08T01:15:06.625Z,94.22
2018-02-08T01:16:06.606Z,94.89
2018-02-08T01:17:59.535Z,94.60
2018-02-08T01:18:59.519Z,94.89
2018-02-08T01:20:52.442Z,94.79
2018-02-08T01:21:52.446Z,94.79
2018-02-08T01:23:45.385Z,94.98
2018-02-08T01:24:45.368Z,95.07
2018-02-08T01:26:38.289Z,95.36
2018-02-08T01:27:38.291Z,95.36
2018-02-08T01:29:31.224Z,96.20
2018-02-08T01:30:31.216Z,96.58
2018-02-08T01:32:24.121Z,96.77
2018-02-08T01:33:24.126Z,96.77
2018-02-08T01:35:17.067Z,96.01
2018-02-08T01:36:17.048Z,96.20
2018-02-08T01:38:09.988Z,96.39
2018-02-08T01:39:09.971Z,96.68
2018-02-08T01:41:02.882Z,96.77
2018-02-08T01:42:02.890Z,96.58
2018-02-08T01:43:55.824Z,95.45
2018-02-08T01:44:55.807Z,95.92
2018-02-08T01:46:48.718Z,96.11
2018-02-08T01:47:48.724Z,95.92
2018-02-08T01:49:41.657Z,95.83
2018-02-08T01:50:41.638Z,95.45
2018-02-08T01:52:34.555Z,96.34
2018-02-08T01:53:34.556Z,97.00
2018-02-08T01:55:27.494Z,98.23
2018-02-08T01:56:27.484Z,98.14
2018-02-08T01:58:20.420Z,98.71
2018-02-08T01:59:20.404Z,99.04
2018-02-08T02:01:13.324Z,98.47
2018-02-08T02:02:13.331Z,97.91
2018-02-08T02:04:06.263Z,97.34
2018-02-08T02:05:06.250Z,97.62
2018-02-08T02:06:59.162Z,98.00
2018-02-08T02:07:59.173Z,98.00
2018-02-08T02:09:52.099Z,98.00
2018-02-08T02:10:52.082Z,97.81
2018-02-08T02:12:44.998Z,97.81
2018-02-08T02:13:45.006Z,97.72
2018-02-08T02:15:37.940Z,97.62
2018-02-08T02:16:37.921Z,98.10
2018-02-08T02:18:30.860Z,97.72
2018-02-08T02:19:30.850Z,97.38
2018-02-08T02:21:23.790Z,97.95
2018-02-08T02:22:23.778Z,98.42
2018-02-08T02:24:16.722Z,99.74
2018-02-08T02:25:16.699Z,99.65
2018-02-08T02:27:09.607Z,99.99
2018-02-08T02:28:09.610Z,99.99
2018-02-08T02:30:02.643Z,99.99
2018-02-08T02:31:02.556Z,99.99
2018-02-08T02:32:55.969Z,99.99
2018-02-08T02:33:55.976Z,99.99
2018-02-08T02:35:48.915Z,99.99
2018-02-08T02:36:48.892Z,99.99
2018-02-08T02:38:41.823Z,99.99
2018-02-08T02:39:41.808Z,99.99
2018-02-08T02:41:34.734Z,99.99
2018-02-08T02:42:34.734Z,99.93
2018-02-08T02:44:27.684Z,99.18
2018-02-08T02:45:27.657Z,99.08
2018-02-08T02:47:20.564Z,99.55
2018-02-08T02:48:20.569Z,99.74
2018-02-08T02:50:13.509Z,99.99
2018-02-08T02:51:13.491Z,99.99
2018-02-08T02:53:07.399Z,99.99
2018-02-08T02:54:07.396Z,99.99
2018-02-08T02:56:00.335Z,99.99
2018-02-08T02:57:00.322Z,99.99
2018-02-08T02:58:53.254Z,99.46
2018-02-08T02:59:53.237Z,98.42
2018-02-08T03:01:46.148Z,98.04
2018-02-08T03:02:46.154Z,97.76
2018-02-08T03:04:39.138Z,96.91
2018-02-08T03:05:39.078Z,97.10
2018-02-08T03:07:31.993Z,97.10
2018-02-08T03:08:31.990Z,96.77
2018-02-08T03:10:24.927Z,96.96
2018-02-08T03:11:24.916Z,97.00
2018-02-08T03:13:17.829Z,97.24
2018-02-08T03:14:17.833Z,97.24
2018-02-08T03:16:10.782Z,97.10
2018-02-08T03:17:10.755Z,96.81
2018-02-08T03:19:03.691Z,97.67
2018-02-08T03:20:03.678Z,96.91
2018-02-08T03:21:56.625Z,97.19
2018-02-08T03:22:56.606Z,97.53
2018-02-08T03:24:49.536Z,96.96
2018-02-08T03:25:49.520Z,97.81
2018-02-08T03:27:42.430Z,96.91
2018-02-08T03:28:42.438Z,97.00
2018-02-08T03:30:35.379Z,97.00
2018-02-08T03:31:35.359Z,97.57
2018-02-08T03:33:28.773Z,98.04
2018-02-08T03:34:28.788Z,98.14
2018-02-08T03:36:21.706Z,98.80
2018-02-08T03:37:21.702Z,98.61
2018-02-08T03:39:14.622Z,99.99
2018-02-08T03:40:14.608Z,99.99
2018-02-08T03:42:07.536Z,99.99
2018-02-08T03:43:07.541Z,99.99
2018-02-08T03:45:00.468Z,99.99
2018-02-08T03:46:00.452Z,99.99
2018-02-08T03:47:53.364Z,99.99
2018-02-08T03:48:53.378Z,99.99
2018-02-08T03:50:46.308Z,99.99
2018-02-08T03:51:46.294Z,99.99
2018-02-08T03:53:40.202Z,99.99
2018-02-08T03:54:40.204Z,99.99
2018-02-08T03:56:33.142Z,99.99
2018-02-08T03:57:33.129Z,99.99
2018-02-08T03:59:26.554Z,99.99
2018-02-08T04:00:26.541Z,99.99
2018-02-08T04:02:19.456Z,99.99
2018-02-08T04:03:19.461Z,99.99
2018-02-08T04:05:12.397Z,99.99
2018-02-08T04:06:12.379Z,99.99
2018-02-08T04:08:05.290Z,99.99
2018-02-08T04:09:05.328Z,99.99
2018-02-08T04:10:58.237Z,99.99
2018-02-08T04:11:58.220Z,99.99
2018-02-08T04:13:51.139Z,99.99
2018-02-08T04:14:51.151Z,99.99
2018-02-08T04:16:44.059Z,99.99
2018-02-08T04:17:44.046Z,99.99
2018-02-08T04:19:36.986Z,99.99
2018-02-08T04:20:36.967Z,99.99
2018-02-08T04:22:29.904Z,99.99
2018-02-08T04:23:29.883Z,99.99
2018-02-08T04:25:22.854Z,99.99
2018-02-08T04:26:22.822Z,99.99
2018-02-08T04:28:15.750Z,99.99
2018-02-08T04:29:15.741Z,99.99
2018-02-08T04:31:08.673Z,99.99
2018-02-08T04:32:08.656Z,99.99
2018-02-08T04:34:02.080Z,99.99
2018-02-08T04:35:02.068Z,99.99
2018-02-08T04:36:55.013Z,99.99
2018-02-08T04:37:54.996Z,99.99
2018-02-08T04:39:47.911Z,99.99
2018-02-08T04:40:47.913Z,99.99
2018-02-08T04:42:40.850Z,99.99
2018-02-08T04:43:40.833Z,99.99
2018-02-08T04:45:33.768Z,99.99
2018-02-08T04:46:33.753Z,99.99
2018-02-08T04:48:27.157Z,99.99
2018-02-08T04:49:27.175Z,99.99
2018-02-08T04:51:20.091Z,99.99
2018-02-08T04:52:20.078Z,99.99
2018-02-08T04:54:12.988Z,99.99
2018-02-08T04:55:12.997Z,99.99
2018-02-08T04:57:05.924Z,99.99
2018-02-08T04:58:05.909Z,99.99
2018-02-08T04:59:58.821Z,99.99
2018-02-08T05:00:58.826Z,99.99
2018-02-08T05:02:51.756Z,99.99
2018-02-08T05:03:51.739Z,99.99
2018-02-08T05:05:44.692Z,99.99
2018-02-08T05:06:44.672Z,99.99
2018-02-08T05:08:37.594Z,99.99
2018-02-08T05:09:37.591Z,99.99
2018-02-08T05:11:30.525Z,99.99
2018-02-08T05:12:30.510Z,99.99
2018-02-08T05:14:23.425Z,99.99
2018-02-08T05:15:23.426Z,99.99
2018-02-08T05:17:16.365Z,99.99
2018-02-08T05:18:16.346Z,99.99
2018-02-08T05:20:09.258Z,99.99
2018-02-08T05:21:09.275Z,99.99
2018-02-08T05:23:02.191Z,99.99
2018-02-08T05:24:02.186Z,99.99
2018-02-08T05:25:55.118Z,99.99
2018-02-08T05:26:55.106Z,99.99
2018-02-08T05:28:48.040Z,99.99
2018-02-08T05:29:48.022Z,99.99
2018-02-08T05:31:40.964Z,99.99
2018-02-08T05:32:40.939Z,99.99
2018-02-08T05:34:34.360Z,99.99
2018-02-08T05:35:34.352Z,99.99
2018-02-08T05:37:27.290Z,99.99
2018-02-08T05:38:27.277Z,99.99
2018-02-08T05:40:20.188Z,99.99
2018-02-08T05:41:20.191Z,99.99
2018-02-08T05:43:13.124Z,99.99
2018-02-08T05:44:13.105Z,99.99
2018-02-08T05:46:06.011Z,99.99
2018-02-08T05:47:06.024Z,99.99
2018-02-08T05:48:58.967Z,99.99
2018-02-08T05:49:58.934Z,99.99
2018-02-08T05:51:51.894Z,99.99
2018-02-08T05:52:51.842Z,99.99
2018-02-08T05:54:44.758Z,99.99
2018-02-08T05:55:44.764Z,99.99
2018-02-08T05:57:37.696Z,99.99
2018-02-08T05:58:37.677Z,99.99
2018-02-08T06:00:30.594Z,99.99
2018-02-08T06:01:30.601Z,99.99
2018-02-08T06:03:23.527Z,99.99
2018-02-08T06:04:23.515Z,99.99
2018-02-08T06:06:16.433Z,99.99
2018-02-08T06:07:16.437Z,99.99
2018-02-08T06:09:09.371Z,99.99
2018-02-08T06:10:09.350Z,99.99
2018-02-08T06:12:02.283Z,99.99
2018-02-08T06:13:02.269Z,99.99
2018-02-08T06:14:55.180Z,99.99
2018-02-08T06:15:55.187Z,99.99
2018-02-08T06:17:48.118Z,99.99
2018-02-08T06:18:48.107Z,99.99
2018-02-08T06:20:41.518Z,99.99
2018-02-08T06:21:41.518Z,99.99
2018-02-08T06:23:34.455Z,99.99
2018-02-08T06:24:34.433Z,99.99
2018-02-08T06:26:27.349Z,99.99
2018-02-08T06:27:27.349Z,99.99
2018-02-08T06:29:20.778Z,99.99
2018-02-08T06:30:20.768Z,99.99
2018-02-08T06:32:16.715Z,99.99
2018-02-08T06:33:16.676Z,99.99
2018-02-08T06:35:09.587Z,99.99
2018-02-08T06:36:09.591Z,99.99
2018-02-08T06:38:02.516Z,99.99
2018-02-08T06:39:02.506Z,99.99
2018-02-08T06:40:55.425Z,99.99
2018-02-08T06:41:55.418Z,99.99
2018-02-08T06:43:48.353Z,99.99
2018-02-08T06:44:48.337Z,99.99
2018-02-08T06:46:41.272Z,99.99
2018-02-08T06:47:41.258Z,99.99
2018-02-08T06:49:34.698Z,99.99
2018-02-08T06:50:34.671Z,99.99
2018-02-08T06:52:27.604Z,99.99
2018-02-08T06:53:27.590Z,99.99
2018-02-08T06:55:20.492Z,99.99
2018-02-08T06:56:20.499Z,99.99
2018-02-08T06:58:13.450Z,99.99
2018-02-08T06:59:13.512Z,99.99
2018-02-08T07:01:06.323Z,99.99
2018-02-08T07:02:06.335Z,99.99
2018-02-08T07:03:59.252Z,99.99
2018-02-08T07:04:59.238Z,99.99
2018-02-08T07:06:55.159Z,99.99
2018-02-08T07:07:55.155Z,99.99
2018-02-08T07:09:49.606Z,99.99
2018-02-08T07:10:49.595Z,99.99
2018-02-08T07:12:43.183Z,99.99
2018-02-08T07:13:42.568Z,99.99
2018-02-08T07:15:37.049Z,99.99
2018-02-08T07:16:37.038Z,99.99
2018-02-08T07:18:30.510Z,99.99
2018-02-08T07:19:30.517Z,99.99
2018-02-08T07:21:23.444Z,99.99
2018-02-08T07:22:23.454Z,99.99
2018-02-08T07:24:16.424Z,99.99
2018-02-08T07:25:16.568Z,99.99
2018-02-08T07:27:09.870Z,99.99
2018-02-08T07:28:09.870Z,99.99
2018-02-08T07:30:02.844Z,99.99
2018-02-08T07:31:03.246Z,99.99
2018-02-08T07:32:55.788Z,99.99
2018-02-08T07:33:55.769Z,99.99
2018-02-08T07:35:48.790Z,99.99
2018-02-08T07:36:48.722Z,99.99
2018-02-08T07:38:42.267Z,99.99
2018-02-08T07:39:42.267Z,99.99
2018-02-08T07:41:36.728Z,99.37
2018-02-08T07:42:36.683Z,99.46
2018-02-08T07:44:35.021Z,99.65
2018-02-08T07:45:35.150Z,99.18
2018-02-08T07:47:27.948Z,98.90
2018-02-08T07:48:28.019Z,99.08
2018-02-08T07:50:21.005Z,99.46
2018-02-08T07:51:20.973Z,99.46
2018-02-08T07:53:14.411Z,98.99
2018-02-08T07:54:14.325Z,99.65
2018-02-08T07:56:07.796Z,99.13
2018-02-08T07:57:07.832Z,98.75
2018-02-08T07:59:00.765Z,97.15
2018-02-08T08:00:00.765Z,96.77
2018-02-08T08:01:53.788Z,96.39
2018-02-08T08:02:53.815Z,96.68
2018-02-08T08:04:46.664Z,96.68
2018-02-08T08:05:46.671Z,96.68
2018-02-08T08:07:39.687Z,96.30
2018-02-08T08:08:39.811Z,95.73
2018-02-08T08:10:32.749Z,94.89
2018-02-08T08:11:32.591Z,94.60
2018-02-08T08:13:25.556Z,94.41
2018-02-08T08:14:25.519Z,94.98
2018-02-08T08:16:18.465Z,95.73
2018-02-08T08:17:18.501Z,95.83
2018-02-08T08:19:11.975Z,95.73
2018-02-08T08:20:11.927Z,95.54
2018-02-08T08:22:04.941Z,95.36
2018-02-08T08:23:04.983Z,95.07
2018-02-08T08:24:57.963Z,96.01
2018-02-08T08:25:57.937Z,96.11
2018-02-08T08:27:50.960Z,96.30
2018-02-08T08:28:50.960Z,96.49
2018-02-08T08:30:44.036Z,96.11
2018-02-08T08:31:44.026Z,96.20
2018-02-08T08:33:37.020Z,95.36
2018-02-08T08:34:37.004Z,95.73
2018-02-08T08:36:30.171Z,96.20
2018-02-08T08:37:29.964Z,96.58
2018-02-08T08:39:22.927Z,96.96
2018-02-08T08:40:22.949Z,97.62
2018-02-08T08:42:15.854Z,98.19
2018-02-08T08:43:15.856Z,98.28
2018-02-08T08:45:08.789Z,98.19
2018-02-08T08:46:08.775Z,97.91
2018-02-08T08:48:01.695Z,97.15
2018-02-08T08:49:01.699Z,96.86
2018-02-08T08:50:54.649Z,96.39
2018-02-08T08:51:54.752Z,95.83
2018-02-08T08:53:47.722Z,95.07
2018-02-08T08:54:47.548Z,94.13
2018-02-08T08:56:40.534Z,93.80
2018-02-08T08:57:40.497Z,93.89
2018-02-08T08:59:33.574Z,93.80
2018-02-08T09:00:33.395Z,94.32
2018-02-08T09:02:26.388Z,94.18
2018-02-08T09:03:27.179Z,93.61
2018-02-08T09:05:19.358Z,92.00
2018-02-08T09:06:19.365Z,92.19
2018-02-08T09:08:12.191Z,91.63
2018-02-08T09:09:12.159Z,91.34
2018-02-08T09:11:05.388Z,90.59
2018-02-08T09:12:05.262Z,90.30
2018-02-08T09:13:58.484Z,90.59
2018-02-08T09:14:58.187Z,90.21
2018-02-08T09:16:52.074Z,87.98
2018-02-08T09:17:51.186Z,88.04
2018-02-08T09:19:44.196Z,89.03
2018-02-08T09:20:44.101Z,89.50
2018-02-08T09:22:37.233Z,88.17
2018-02-08T09:23:37.217Z,88.46
2018-02-08T09:25:29.993Z,88.08
2018-02-08T09:26:30.051Z,87.61
2018-02-08T09:28:22.980Z,86.00
2018-02-08T09:29:23.117Z,85.62
2018-02-08T09:31:15.988Z,86.47
2018-02-08T09:32:16.299Z,86.66
2018-02-08T09:34:08.938Z,86.10
2018-02-08T09:35:08.823Z,86.66
2018-02-08T09:37:01.866Z,85.24
2018-02-08T09:38:01.804Z,84.68
2018-02-08T09:39:01.732Z,84.96
2018-02-08T09:40:01.795Z,84.58
2018-02-08T09:41:01.778Z,84.01
2018-02-08T09:42:02.070Z,83.83
2018-02-08T09:43:01.798Z,84.20
2018-02-08T09:44:01.930Z,83.83
2018-02-08T09:45:01.860Z,82.88
2018-02-08T09:46:01.812Z,82.60
2018-02-08T09:47:02.425Z,82.98
2018-02-08T09:48:01.890Z,81.93
2018-02-08T09:49:01.942Z,82.31
2018-02-08T09:50:01.863Z,82.98
2018-02-08T09:51:01.947Z,82.79
2018-02-08T09:52:02.034Z,83.26
2018-02-08T09:53:02.298Z,83.45
2018-02-08T09:54:02.081Z,82.83
2018-02-08T09:55:02.196Z,82.45
2018-02-08T09:56:02.097Z,81.88
2018-02-08T09:57:02.326Z,81.56
2018-02-08T09:58:02.038Z,82.83
2018-02-08T09:59:02.433Z,83.59
2018-02-08T10:00:02.210Z,83.11
2018-02-08T10:01:02.055Z,82.17
2018-02-08T10:02:02.344Z,81.88
2018-02-08T10:03:02.142Z,81.32
2018-02-08T10:04:02.089Z,80.75
2018-02-08T10:05:02.126Z,80.27
2018-02-08T10:06:02.193Z,80.08
2018-02-08T10:07:02.373Z,79.80
2018-02-08T10:08:02.278Z,80.08
2018-02-08T10:09:02.114Z,79.61
2018-02-08T10:10:02.158Z,79.52
2018-02-08T10:11:02.142Z,80.18
2018-02-08T10:12:02.152Z,80.18
2018-02-08T10:13:02.163Z,79.80
2018-02-08T10:14:02.177Z,79.33
2018-02-08T10:15:02.192Z,78.29
2018-02-08T10:16:02.203Z,77.82
2018-02-08T10:17:02.278Z,77.44
2018-02-08T10:18:02.243Z,77.53
2018-02-08T10:19:02.244Z,77.82
2018-02-08T10:20:02.282Z,77.63
2018-02-08T10:21:02.299Z,78.61
2018-02-08T10:22:02.294Z,78.80
2018-02-08T10:23:02.308Z,78.48
2018-02-08T10:24:02.347Z,78.23
2018-02-08T10:25:02.351Z,77.86
2018-02-08T10:26:02.376Z,77.44
2018-02-08T10:27:02.374Z,77.10
2018-02-08T10:28:02.394Z,77.01
2018-02-08T10:29:02.383Z,77.10
2018-02-08T10:30:02.409Z,77.95
2018-02-08T10:31:02.406Z,78.14
2018-02-08T10:32:02.453Z,78.14
2018-02-08T10:33:02.434Z,77.86
2018-02-08T10:34:02.464Z,77.67
2018-02-08T10:35:02.462Z,77.10
2018-02-08T10:36:02.523Z,76.72
2018-02-08T10:37:02.538Z,76.72
2018-02-08T10:38:02.521Z,76.82
2018-02-08T10:39:02.521Z,76.06
2018-02-08T10:40:02.529Z,76.34
2018-02-08T10:41:02.572Z,75.59
2018-02-08T10:42:02.555Z,75.40
2018-02-08T10:43:02.616Z,74.55
2018-02-08T10:44:02.600Z,73.98
2018-02-08T10:45:02.626Z,73.88
2018-02-08T10:46:02.613Z,73.60
2018-02-08T10:47:02.673Z,73.88
2018-02-08T10:48:02.649Z,73.79
2018-02-08T10:49:02.663Z,74.55
2018-02-08T10:50:02.728Z,74.64
2018-02-08T10:51:02.683Z,74.17
2018-02-08T10:52:02.708Z,73.69
2018-02-08T10:53:02.717Z,73.69
2018-02-08T10:54:02.735Z,73.32
2018-02-08T10:55:02.774Z,72.85
2018-02-08T10:56:02.764Z,72.31
2018-02-08T10:57:02.793Z,71.93
2018-02-08T10:58:02.788Z,72.12
2018-02-08T10:59:02.808Z,71.74
2018-02-08T11:00:02.815Z,71.55
2018-02-08T11:01:02.876Z,71.84
2018-02-08T11:02:02.842Z,71.74
2018-02-08T11:03:02.848Z,71.74
2018-02-08T11:04:02.863Z,71.36
2018-02-08T11:05:02.878Z,71.65
2018-02-08T11:06:02.958Z,71.55
2018-02-08T11:07:02.916Z,72.31
2018-02-08T11:08:02.920Z,72.22
2018-02-08T11:09:02.930Z,71.84
2018-02-08T11:10:03.011Z,72.12
2018-02-08T11:11:02.973Z,71.46
2018-02-08T11:12:02.975Z,71.65
2018-02-08T11:13:03.002Z,71.74
2018-02-08T11:14:03.012Z,72.12
2018-02-08T11:15:03.035Z,71.84
2018-02-08T11:16:03.036Z,72.03
2018-02-08T11:17:03.060Z,73.35
2018-02-08T11:18:03.059Z,73.92
2018-02-08T11:19:03.104Z,74.40
2018-02-08T11:20:03.090Z,75.24
2018-02-08T11:21:03.170Z,75.62
2018-02-08T11:22:03.113Z,75.43
2018-02-08T11:23:03.129Z,74.96
2018-02-08T11:24:03.143Z,74.68
2018-02-08T11:25:03.176Z,74.58
2018-02-08T11:26:03.176Z,74.87
2018-02-08T11:27:03.204Z,75.15
2018-02-08T11:28:03.205Z,75.15
2018-02-08T11:29:03.236Z,74.77
2018-02-08T11:30:03.230Z,74.40
2018-02-08T11:31:03.248Z,75.05
2018-02-08T11:32:03.263Z,75.05
2018-02-08T11:33:03.279Z,74.68
2018-02-08T11:34:03.331Z,74.87
2018-02-08T11:35:03.331Z,75.24
2018-02-08T11:36:03.375Z,75.34
2018-02-08T11:37:03.330Z,75.24
2018-02-08T11:38:03.361Z,74.96
2018-02-08T11:39:03.369Z,75.62
2018-02-08T11:40:03.377Z,75.15
2018-02-08T11:41:03.389Z,74.30
2018-02-08T11:42:03.406Z,74.96
2018-02-08T11:43:03.438Z,74.77
2018-02-08T11:44:03.485Z,75.53
2018-02-08T11:45:03.445Z,75.24
2018-02-08T11:46:03.482Z,74.77
2018-02-08T11:47:03.504Z,74.49
2018-02-08T11:48:03.540Z,74.87
2018-02-08T11:49:03.538Z,75.34
2018-02-08T11:50:03.552Z,75.24
2018-02-08T11:51:03.549Z,75.47
2018-02-08T11:52:03.615Z,74.68
2018-02-08T11:53:03.578Z,74.68
2018-02-08T11:54:03.587Z,74.68
2018-02-08T11:55:03.594Z,75.05
2018-02-08T11:56:03.623Z,75.53
2018-02-08T11:57:03.638Z,75.05
2018-02-08T11:58:03.638Z,74.71
2018-02-08T11:59:03.649Z,75.24
2018-02-08T12:00:03.678Z,75.57
2018-02-08T12:01:03.683Z,75.66
2018-02-08T12:02:03.705Z,75.57
2018-02-08T12:03:03.721Z,75.38
2018-02-08T12:04:03.730Z,75.47
2018-02-08T12:05:03.747Z,76.14
2018-02-08T12:06:03.760Z,76.14
2018-02-08T12:07:03.776Z,76.14
2018-02-08T12:08:03.781Z,76.14
2018-02-08T12:09:03.798Z,75.09
2018-02-08T12:10:03.816Z,75.19
2018-02-08T12:11:03.832Z,74.71
2018-02-08T12:12:03.843Z,74.62
2018-02-08T12:13:03.856Z,75.34
2018-02-08T12:14:03.869Z,75.53
2018-02-08T12:15:03.890Z,75.76
2018-02-08T12:16:03.902Z,75.09
2018-02-08T12:17:03.917Z,75.38
2018-02-08T12:18:03.927Z,75.28
2018-02-08T12:19:03.944Z,75.28
2018-02-08T12:20:03.961Z,74.62
2018-02-08T12:21:03.973Z,74.05
2018-02-08T12:22:03.988Z,73.96
2018-02-08T12:23:04.005Z,73.68
2018-02-08T12:24:04.020Z,73.49
2018-02-08T12:25:04.035Z,73.30
2018-02-08T12:26:04.069Z,73.58
2018-02-08T12:27:04.063Z,73.30
2018-02-08T12:28:04.086Z,72.16
2018-02-08T12:29:04.089Z,72.44
2018-02-08T12:30:04.107Z,71.97
2018-02-08T12:31:04.125Z,71.40
2018-02-08T12:32:04.137Z,71.88
2018-02-08T12:33:04.158Z,72.25
2018-02-08T12:34:04.172Z,71.97
2018-02-08T12:35:04.181Z,72.53
2018-02-08T12:36:04.196Z,73.01
2018-02-08T12:37:04.217Z,72.44
2018-02-08T12:38:04.225Z,72.73
2018-02-08T12:39:04.244Z,72.44
2018-02-08T12:40:04.253Z,72.53
2018-02-08T12:41:04.332Z,73.01
2018-02-08T12:42:04.285Z,73.49
2018-02-08T12:43:04.404Z,73.96
2018-02-08T12:44:04.318Z,73.96
2018-02-08T12:45:04.328Z,73.20
2018-02-08T12:46:04.349Z,73.77
2018-02-08T12:47:04.360Z,73.20
2018-02-08T12:48:04.374Z,73.39
2018-02-08T12:49:04.389Z,73.20
2018-02-08T12:50:04.430Z,72.96
2018-02-08T12:51:04.566Z,72.77
2018-02-08T12:52:04.496Z,71.72
2018-02-08T12:53:04.453Z,71.78
2018-02-08T12:54:04.472Z,72.57
2018-02-08T12:55:04.478Z,71.91
2018-02-08T12:56:04.502Z,72.29
2018-02-08T12:57:04.550Z,72.19
2018-02-08T12:58:04.524Z,72.57
2018-02-08T12:59:04.540Z,72.48
2018-02-08T13:00:04.559Z,73.05
2018-02-08T13:01:04.569Z,73.05
2018-02-08T13:02:04.585Z,72.48
2018-02-08T13:03:04.599Z,71.91
2018-02-08T13:04:04.619Z,72.29
2018-02-08T13:05:04.629Z,71.72
2018-02-08T13:06:04.648Z,71.81
2018-02-08T13:07:04.701Z,71.62
2018-02-08T13:08:04.674Z,71.34
2018-02-08T13:09:04.686Z,71.44
2018-02-08T13:10:04.702Z,71.25
2018-02-08T13:11:04.724Z,71.15
2018-02-08T13:12:04.737Z,72.19
2018-02-08T13:13:04.756Z,72.38
2018-02-08T13:14:04.766Z,72.29
2018-02-08T13:15:04.783Z,72.48
2018-02-08T13:16:04.792Z,71.81
2018-02-08T13:17:04.818Z,71.91
2018-02-08T13:18:04.828Z,72.48
2018-02-08T13:19:04.840Z,72.38
2018-02-08T13:20:04.858Z,72.10
2018-02-08T13:21:04.872Z,72.10
2018-02-08T13:22:04.886Z,71.44
2018-02-08T13:23:04.977Z,70.49
2018-02-08T13:24:04.919Z,70.30
2018-02-08T13:25:04.940Z,70.20
2018-02-08T13:26:04.949Z,70.97
2018-02-08T13:27:04.968Z,70.68
2018-02-08T13:28:04.978Z,71.25
2018-02-08T13:29:04.994Z,70.58
2018-02-08T13:30:05.008Z,70.97
2018-02-08T13:31:05.155Z,70.97
2018-02-08T13:32:05.047Z,70.68
2018-02-08T13:33:05.050Z,70.01
2018-02-08T13:34:05.068Z,70.97
2018-02-08T13:35:05.080Z,70.78
2018-02-08T13:36:05.101Z,71.34
2018-02-08T13:37:05.115Z,70.78
2018-02-08T13:38:05.127Z,70.87
2018-02-08T13:39:05.147Z,70.78
2018-02-08T13:40:05.156Z,70.97
2018-02-08T13:41:05.174Z,71.25
2018-02-08T13:42:05.189Z,71.91
2018-02-08T13:43:05.206Z,71.44
2018-02-08T13:44:05.223Z,72.38
2018-02-08T13:45:05.232Z,72.00
2018-02-08T13:46:05.250Z,71.91
2018-02-08T13:47:05.265Z,71.44
2018-02-08T13:48:05.280Z,72.29
2018-02-08T13:49:05.292Z,72.19
2018-02-08T13:50:05.309Z,71.15
2018-02-08T13:51:05.327Z,71.15
2018-02-08T13:52:05.344Z,71.25
2018-02-08T13:53:05.357Z,71.62
2018-02-08T13:54:05.371Z,71.15
2018-02-08T13:55:05.386Z,71.06
2018-02-08T13:56:05.408Z,71.44
2018-02-08T13:57:05.414Z,70.97
2018-02-08T13:58:05.430Z,71.44
2018-02-08T13:59:05.445Z,70.97
2018-02-08T14:00:05.463Z,71.62
2018-02-08T14:01:05.485Z,71.25
2018-02-08T14:02:05.494Z,70.97
2018-02-08T14:03:05.514Z,71.44
2018-02-08T14:04:05.524Z,71.81
2018-02-08T14:05:05.556Z,72.48
2018-02-08T14:06:05.551Z,71.91
2018-02-08T14:07:05.570Z,71.62
2018-02-08T14:08:05.585Z,71.34
2018-02-08T14:09:05.599Z,71.06
2018-02-08T14:10:05.614Z,70.49
2018-02-08T14:11:05.628Z,71.06
2018-02-08T14:12:05.645Z,70.58
2018-02-08T14:13:05.663Z,70.58
2018-02-08T14:14:05.675Z,70.87
2018-02-08T14:15:05.691Z,70.87
2018-02-08T14:16:05.707Z,70.68
2018-02-08T14:17:05.723Z,70.39
2018-02-08T14:18:05.738Z,70.78
2018-02-08T14:19:05.749Z,70.97
2018-02-08T14:20:05.905Z,70.49
2018-02-08T14:21:05.797Z,70.78
2018-02-08T14:22:05.794Z,71.06
2018-02-08T14:23:05.808Z,71.81
2018-02-08T14:24:05.830Z,71.91
2018-02-08T14:25:05.841Z,71.15
2018-02-08T14:26:05.857Z,71.06
2018-02-08T14:27:05.872Z,71.06
2018-02-08T14:28:05.897Z,71.44
2018-02-08T14:29:05.902Z,70.68
2018-02-08T14:30:05.918Z,70.78
2018-02-08T14:31:05.938Z,71.34
2018-02-08T14:32:06.020Z,71.81
2018-02-08T14:33:06.024Z,71.62
2018-02-08T14:34:06.020Z,71.44
2018-02-08T14:35:05.999Z,71.15
2018-02-08T14:36:06.017Z,71.72
2018-02-08T14:37:06.036Z,71.06
2018-02-08T14:38:06.042Z,71.15
2018-02-08T14:39:06.054Z,71.25
2018-02-08T14:40:06.071Z,71.81
2018-02-08T14:41:06.176Z,71.81
2018-02-08T14:42:06.190Z,71.34
2018-02-08T14:43:06.153Z,71.06
2018-02-08T14:44:06.129Z,70.87
2018-02-08T14:45:06.148Z,71.19
2018-02-08T14:46:06.167Z,71.47
2018-02-08T14:47:06.183Z,71.25
2018-02-08T14:48:06.194Z,70.78
2018-02-08T14:49:06.210Z,71.44
2018-02-08T14:50:06.225Z,71.25
2018-02-08T14:51:06.237Z,71.25
2018-02-08T14:52:06.252Z,70.87
2018-02-08T14:53:06.262Z,71.25
2018-02-08T14:54:06.281Z,71.25
2018-02-08T14:55:06.297Z,71.62
2018-02-08T14:56:06.312Z,72.00
2018-02-08T14:57:06.390Z,72.10
2018-02-08T14:58:06.345Z,71.72
2018-02-08T14:59:06.354Z,71.44
2018-02-08T15:00:06.369Z,71.91
2018-02-08T15:01:06.385Z,72.00
2018-02-08T15:02:06.400Z,72.48
2018-02-08T15:03:06.416Z,72.38
2018-02-08T15:04:06.434Z,72.38
2018-02-08T15:05:06.483Z,72.38
2018-02-08T15:06:06.464Z,72.38
2018-02-08T15:07:06.476Z,72.57
2018-02-08T15:08:06.504Z,72.10
2018-02-08T15:09:06.509Z,72.67
2018-02-08T15:10:06.522Z,72.10
2018-02-08T15:11:06.535Z,72.77
2018-02-08T15:12:06.550Z,71.91
2018-02-08T15:13:06.565Z,71.91
2018-02-08T15:14:06.578Z,71.81
2018-02-08T15:15:06.596Z,71.91
2018-02-08T15:16:06.616Z,72.38
2018-02-08T15:17:06.624Z,72.67
2018-02-08T15:18:06.640Z,73.14
2018-02-08T15:19:06.661Z,72.96
2018-02-08T15:20:06.668Z,72.77
2018-02-08T15:21:06.686Z,72.57
2018-02-08T15:22:06.701Z,73.71
2018-02-08T15:23:06.715Z,73.24
2018-02-08T15:24:06.730Z,73.24
2018-02-08T15:25:06.746Z,73.61
2018-02-08T15:26:06.767Z,73.24
2018-02-08T15:27:06.780Z,73.43
2018-02-08T15:28:06.811Z,73.14
2018-02-08T15:29:06.834Z,73.43
2018-02-08T15:30:06.819Z,73.24
2018-02-08T15:31:06.873Z,73.33
2018-02-08T15:32:06.870Z,73.43
2018-02-08T15:33:06.869Z,73.71
2018-02-08T15:34:06.884Z,73.33
2018-02-08T15:35:06.892Z,73.71
2018-02-08T15:36:06.913Z,74.05
2018-02-08T15:37:06.923Z,74.75
2018-02-08T15:38:06.953Z,74.90
2018-02-08T15:39:06.956Z,74.15
2018-02-08T15:40:07.020Z,74.66
2018-02-08T15:41:07.032Z,74.28
2018-02-08T15:42:07.028Z,74.56
2018-02-08T15:43:07.010Z,74.43
2018-02-08T15:44:07.037Z,74.15
2018-02-08T15:45:07.047Z,74.43
2018-02-08T15:46:07.108Z,74.81
2018-02-08T15:47:07.102Z,74.81
2018-02-08T15:48:07.090Z,74.33
2018-02-08T15:49:07.114Z,74.47